WetterOnline ( https://www.wetteronline.de )

Wetter aktuell Mühlhausen

Aktuelles Wetter: Waibstadt (237m)

6-stündlich | Neueste Meldungen
Ortszeit Temperatur Wetter
So, 19.09. 8:00 11.6° C wolkenlos
So, 19.09. 2:00 12.1° C wolkenlos
Sa, 18.09. 20:00 17.7° C leicht bewölkt
Sa, 18.09. 14:00 20.8° C wolkenlos
Sa, 18.09. 8:00 8.6° C Nebel
Sa, 18.09. 2:00 11.1° C wolkig
Fr, 17.09. 20:00 15.6° C fast wolkenlos
Fr, 17.09. 14:00 18.4° C bewölkt
Ortszeit Temperatur Wetter
So, 19.09. 11:00 14.5° C bewölkt
So, 19.09. 10:50 14.5° C bewölkt
So, 19.09. 10:40 14.5° C bewölkt
So, 19.09. 10:30 13.7° C bewölkt
So, 19.09. 10:20 13.7° C bewölkt
So, 19.09. 10:10 13.5° C bedeckt
So, 19.09. 10:00 13.4° C wolkig
So, 19.09. 9:30 13.3° C fast wolkenlos
So, 19.09. 9:00 13.2° C wolkenlos
So, 19.09. 8:30 12.5° C wolkenlos
So, 19.09. 8:00 11.6° C wolkenlos
Ortszeit Relative Feuchte Sichtweite
So, 19.09. 8:00 91% 40 km
So, 19.09. 2:00 89% 50 km
Sa, 18.09. 20:00 74% 15 km
Sa, 18.09. 14:00 55% 35 km
Sa, 18.09. 8:00 100% 100 m
Sa, 18.09. 2:00 100% 2.6 km
Fr, 17.09. 20:00 82% 50 km
Fr, 17.09. 14:00 60% 55 km
Ortszeit Relative Feuchte Sichtweite
So, 19.09. 11:00 81% 45 km
So, 19.09. 10:50 81% -
So, 19.09. 10:40 81% -
So, 19.09. 10:30 83% 35 km
So, 19.09. 10:20 83% -
So, 19.09. 10:10 83% -
So, 19.09. 10:00 83% 45 km
So, 19.09. 9:30 83% 35 km
So, 19.09. 9:00 82% 45 km
So, 19.09. 8:30 85% 50 km
So, 19.09. 8:00 91% 40 km
Ortszeit Niederschlagsmenge Niederschlagsart
So, 19.09. 8:00 0.0 l/m2 in 12 Std. -
So, 19.09. 2:00 0.0 l/m2 in 6 Std. -
Sa, 18.09. 20:00 0.0 l/m2 in 12 Std. -
Sa, 18.09. 14:00 0.0 l/m2 in 6 Std. -
Sa, 18.09. 8:00 0.0 l/m2 in 12 Std. -
Sa, 18.09. 2:00 0.0 l/m2 in 6 Std. -
Fr, 17.09. 20:00 0.0 l/m2 in 12 Std. -
Fr, 17.09. 14:00 0.0 l/m2 in 6 Std. -
Ortszeit Niederschlagsmenge Niederschlagsart
So, 19.09. 11:00 0.0 l/m2 in 1 Std. -
So, 19.09. 10:50 keine Meldung -
So, 19.09. 10:40 keine Meldung -
So, 19.09. 10:30 0.0 l/m2 in 1 Std. -
So, 19.09. 10:20 keine Meldung -
So, 19.09. 10:10 keine Meldung -
So, 19.09. 10:00 0.0 l/m2 in 1 Std. -
So, 19.09. 9:30 0.0 l/m2 in 1 Std. -
So, 19.09. 9:00 0.0 l/m2 in 1 Std. -
So, 19.09. 8:30 0.0 l/m2 in 1 Std. -
So, 19.09. 8:00 0.0 l/m2 in 1 Std. -
Ortszeit Stärke Spitze Richtung
km/h Bft. km/h Grad Sektor
So, 19.09. 8:00 9 2 26 90° O
So, 19.09. 2:00 9 2 19 90° O
Sa, 18.09. 20:00 4 1 18 100° O
Sa, 18.09. 14:00 7 2 11 80° O
Sa, 18.09. 8:00 4 1 7 50° NO
Sa, 18.09. 2:00 4 1 11 70° O
Fr, 17.09. 20:00 4 1 18 160° S
Fr, 17.09. 14:00 6 1 13 180° S
Ortszeit Stärke Spitze Richtung
km/h Bft. km/h Grad Sektor
So, 19.09. 11:00 13 3 24 80° O
So, 19.09. 10:50 13 3 - 80° O
So, 19.09. 10:40 13 3 - 80° O
So, 19.09. 10:30 14 3 25 80° O
So, 19.09. 10:20 14 3 - 80° O
So, 19.09. 10:10 13 3 - 80° O
So, 19.09. 10:00 18 3 29 80° O
So, 19.09. 9:30 17 3 28 80° O
So, 19.09. 9:00 11 2 22 80° O
So, 19.09. 8:30 9 2 19 80° O
So, 19.09. 8:00 9 2 20 90° O
Ortszeit Untergrenze Bedeckung Gattung
total tief tief mittel hoch
So, 19.09. 8:00 - 0/8 0/8 - - -
So, 19.09. 2:00 - 0/8 0/8 - - -
Sa, 18.09. 20:00 1410 m 4/8 4/8 - - -
Sa, 18.09. 14:00 - 0/8 0/8 - - -
Sa, 18.09. 8:00 <30 m 8/8 0/8 - - -
Sa, 18.09. 2:00 8100 m 7/8 0/8 - - -
Fr, 17.09. 20:00 2100 m 1/8 1/8 - - -
Fr, 17.09. 14:00 900 m 7/8 7/8 - - -
Ortszeit Bedeckungsgrad in Achtel und Wolkenuntergrenze
So, 19.09. 11:00 7(330m)
So, 19.09. 10:50 7(330m)
So, 19.09. 10:40 7(330m)
So, 19.09. 10:30 7(300m)
So, 19.09. 10:20 7(300m)
So, 19.09. 10:10 8(270m)
So, 19.09. 10:00 6(270m)
So, 19.09. 9:30 1(10500m)
So, 19.09. 9:00 3(10500m)
So, 19.09. 8:30 keine Wolken
So, 19.09. 8:00 keine Wolken
Ortszeit Luftdruck NN (hPa) Tendenz (hPa in 3 Std.)
So, 19.09. 8:00 1015 + 0,4
So, 19.09. 2:00 1016 - 0,2
Sa, 18.09. 20:00 1015 - 0,3
Sa, 18.09. 14:00 1016 - 0,6
Sa, 18.09. 8:00 1018 + 0,5
Sa, 18.09. 2:00 1017 + 0,2
Fr, 17.09. 20:00 1015 - 0,5
Fr, 17.09. 14:00 1016 - 1,1
Ortszeit Luftdruck NN (hPa) Tendenz (hPa in 3 Std.)
So, 19.09. 11:00 1015 + 0,4
So, 19.09. 10:50 1015 keine Meldung
So, 19.09. 10:40 1015 keine Meldung
So, 19.09. 10:30 1015 + 0,6
So, 19.09. 10:20 1015 keine Meldung
So, 19.09. 10:10 1015 keine Meldung
So, 19.09. 10:00 1015 + 0,6
So, 19.09. 9:30 1014 + 0,3
So, 19.09. 9:00 1014 + 0,5
So, 19.09. 8:30 1015 + 0,5
So, 19.09. 8:00 1015 + 0,4
Ortszeit Schneehöhe (cm)
So, 19.09. 8:00 -
So, 19.09. 2:00 -
Sa, 18.09. 20:00 -
Sa, 18.09. 14:00 -
Sa, 18.09. 8:00 -
Sa, 18.09. 2:00 -
Fr, 17.09. 20:00 -
Fr, 17.09. 14:00 -
Ortszeit Schneehöhe (cm)
So, 19.09. 11:00 -
So, 19.09. 10:50 -
So, 19.09. 10:40 -
So, 19.09. 10:30 -
So, 19.09. 10:20 -
So, 19.09. 10:10 -
So, 19.09. 10:00 -
So, 19.09. 9:30 -
So, 19.09. 9:00 -
So, 19.09. 8:30 -
So, 19.09. 8:00 -
Link zu dieser Seite / Seite empfehlen

Das Wetter in ...